Aérodrome :
LOGIN :

S'inscrire | Disclaimer

   EN    FR    IT 

 










Légende :    VFR   VFR Marginal   IFR   IFR Intensif   IFR Très Intensif
Visi : 
Plafond : 
>= 8 km
>= 3000ft
5 à 8 km
1000 à 3000 ft
1500m à 5 km
500 à 1000 ft
800 à 1500m
200 à 500 ft
< 800m
< 200 ft
Symboles :   Orages  Brouillard  Fortes neiges  Fortes précipitations  Vent > 20 kt
SIGMETs :   Divers  Orages  Givrage  Turbulence  Onde Orograph.  Cendres Volcan.






- Altitude de l'aérodrome : 3245 ft
- Code IATA : TID


DAOB - Bou Chekif - Tiaret

DERNIER METAR :
  • 091700Z 21010KT 9999 SCT026 SCT090 18/11 Q1019

METARs EXPIRÉS :
  • 091600Z 32003KT 9999 SCT026 SCT090 20/07 Q1018
  • 091500Z 32003KT 9999 SCT026 SCT090 20/06 Q1018

TAF TAF DAOB
Valide du 09 à 12h jusqu'au 10 à 12h UTC


091100Z 0912/1012 28006KT 9999 FEW030 BKN090
PROB40
TEMPO 0912/0920 FEW026TCU FEW030CB
PROB30
TEMPO 0914/0920 VRB15G25KT 4000 -TSRA FEW030CB
PROB30
TEMPO 1002/1006 32015G25KT 4000 -TSRA FEW030CB



MET'MAP, la Météo Aéronautique d'un coup d'oeil ! - Copyright ORBIFLY Décembre 2007 - Disclaimer

ORBIFLY MET'MAP TEAM :

Programmation & Développement : Alexandra Zaïnal
Sur une idée originale de : Baudouin d'Aumeries
Assistance à la programmation : Marc-Olivier Méhu
Soutien technique & logistique : Manuel Goepfert

Contact : metmap@orbifly.com




SOURCES & CREDITS :

   NOAA